createdAt,value
2022-11-08T00:01:51.000Z,5.55
2022-11-08T00:04:22.232Z,5.65
2022-11-08T00:07:08.293Z,5.78
2022-11-08T00:09:54.756Z,5.07
2022-11-08T00:12:41.367Z,5.43
2022-11-08T00:15:11.487Z,4.85
2022-11-08T00:17:40.108Z,5.20
2022-11-08T00:20:12.645Z,4.93
2022-11-08T00:22:40.797Z,5.00
2022-11-08T00:25:09.655Z,5.38
2022-11-08T00:27:39.742Z,6.72
2022-11-08T00:30:09.038Z,5.05
2022-11-08T00:32:37.454Z,4.43
2022-11-08T00:35:07.491Z,5.05
2022-11-08T00:37:37.404Z,5.43
2022-11-08T00:40:06.264Z,6.45
2022-11-08T00:42:34.702Z,5.88
2022-11-08T00:45:03.550Z,6.50
2022-11-08T00:47:32.319Z,6.72
2022-11-08T00:50:00.694Z,5.85
2022-11-08T00:52:29.285Z,6.40
2022-11-08T00:54:58.806Z,6.03
2022-11-08T00:57:41.100Z,4.60
2022-11-08T01:00:16.156Z,5.30
2022-11-08T01:02:44.803Z,6.38
2022-11-08T01:05:13.195Z,4.40
2022-11-08T01:07:41.715Z,3.95
2022-11-08T01:10:13.377Z,4.45
2022-11-08T01:12:41.867Z,4.82
2022-11-08T01:15:10.608Z,4.80
2022-11-08T01:17:38.969Z,4.95
2022-11-08T01:20:08.920Z,4.63
2022-11-08T01:22:38.280Z,4.75
2022-11-08T01:25:07.170Z,4.85
2022-11-08T01:27:36.829Z,4.65
2022-11-08T01:30:06.146Z,4.90
2022-11-08T01:32:35.470Z,4.90
2022-11-08T01:35:03.881Z,4.72
2022-11-08T01:37:32.254Z,4.30
2022-11-08T01:40:00.773Z,4.28
2022-11-08T01:42:29.652Z,4.78
2022-11-08T01:45:01.431Z,5.28
2022-11-08T01:47:30.392Z,4.45
2022-11-08T01:50:00.379Z,5.53
2022-11-08T01:52:33.556Z,5.40
2022-11-08T01:55:07.978Z,4.70
2022-11-08T01:57:43.757Z,5.57
2022-11-08T02:00:38.911Z,4.70
2022-11-08T02:03:11.558Z,4.53
2022-11-08T02:05:41.063Z,5.47
2022-11-08T02:08:17.434Z,5.82
2022-11-08T02:10:49.377Z,5.57
2022-11-08T02:13:21.340Z,6.15
2022-11-08T02:15:51.034Z,5.07
2022-11-08T02:18:22.446Z,6.13
2022-11-08T02:21:01.938Z,5.35
2022-11-08T02:23:33.599Z,5.20
2022-11-08T02:26:03.470Z,5.70
2022-11-08T02:28:31.646Z,4.65
2022-11-08T02:30:59.812Z,5.68
2022-11-08T02:33:28.030Z,4.85
2022-11-08T02:35:57.661Z,6.28
2022-11-08T02:38:27.234Z,4.78
2022-11-08T02:40:57.404Z,6.90
2022-11-08T02:43:27.449Z,4.38
2022-11-08T02:45:55.709Z,5.30
2022-11-08T02:48:24.029Z,4.90
2022-11-08T02:50:52.794Z,4.22
2022-11-08T02:53:21.378Z,4.18
2022-11-08T02:55:49.884Z,4.55
2022-11-08T02:58:18.513Z,4.30
2022-11-08T03:00:48.396Z,4.93
2022-11-08T03:03:16.830Z,4.82
2022-11-08T03:05:47.615Z,4.65
2022-11-08T03:08:16.491Z,5.35
2022-11-08T03:10:45.088Z,4.78
2022-11-08T03:13:13.312Z,4.30
2022-11-08T03:15:41.806Z,5.18
2022-11-08T03:18:11.584Z,4.93
2022-11-08T03:20:39.694Z,4.43
2022-11-08T03:23:08.344Z,5.05
2022-11-08T03:25:36.651Z,3.80
2022-11-08T03:28:06.704Z,6.15
2022-11-08T03:30:35.485Z,5.75
2022-11-08T03:33:04.372Z,5.40
2022-11-08T03:35:34.171Z,7.00
2022-11-08T03:38:02.504Z,6.30
2022-11-08T03:40:30.687Z,5.45
2022-11-08T03:42:58.949Z,4.78
2022-11-08T03:45:27.436Z,6.78
2022-11-08T03:47:55.681Z,6.80
2022-11-08T03:50:23.894Z,7.20
2022-11-08T03:52:55.541Z,6.38
2022-11-08T03:55:26.477Z,6.32
2022-11-08T03:57:55.061Z,8.13
2022-11-08T04:00:25.739Z,6.40
2022-11-08T04:02:55.168Z,8.07
2022-11-08T04:05:24.040Z,8.27
2022-11-08T04:07:53.697Z,8.43
2022-11-08T04:10:22.084Z,7.30
2022-11-08T04:13:07.863Z,8.50
2022-11-08T04:15:36.246Z,8.23
2022-11-08T04:18:21.914Z,8.38
2022-11-08T04:21:13.702Z,7.70
2022-11-08T04:23:43.407Z,8.10
2022-11-08T04:26:12.751Z,8.07
2022-11-08T04:28:42.670Z,9.18
2022-11-08T04:31:13.528Z,7.90
2022-11-08T04:33:42.494Z,8.70
2022-11-08T04:36:13.088Z,9.55
2022-11-08T04:38:43.003Z,7.78
2022-11-08T04:41:12.843Z,8.43
2022-11-08T04:43:41.443Z,7.82
2022-11-08T04:46:11.454Z,9.18
2022-11-08T04:48:39.920Z,8.50
2022-11-08T04:51:11.069Z,7.68
2022-11-08T04:53:39.645Z,9.50
2022-11-08T04:56:11.101Z,9.10
2022-11-08T04:58:41.248Z,9.90
2022-11-08T05:01:11.585Z,10.05
2022-11-08T05:03:39.936Z,9.45
2022-11-08T05:06:11.499Z,10.93
2022-11-08T05:08:40.440Z,11.10
2022-11-08T05:11:11.504Z,10.32
2022-11-08T05:13:40.133Z,11.85
2022-11-08T05:16:11.577Z,9.20
2022-11-08T05:18:42.034Z,8.98
2022-11-08T05:21:44.387Z,9.60
2022-11-08T05:24:15.356Z,9.60
2022-11-08T05:26:47.651Z,9.93
2022-11-08T05:29:16.896Z,11.40
2022-11-08T05:31:45.122Z,10.13
2022-11-08T05:34:13.749Z,12.85
2022-11-08T05:36:42.014Z,11.50
2022-11-08T05:39:10.350Z,12.40
2022-11-08T05:41:38.548Z,9.85
2022-11-08T05:44:08.284Z,9.70
2022-11-08T05:46:36.823Z,8.88
2022-11-08T05:49:05.113Z,10.23
2022-11-08T05:51:33.673Z,9.73
2022-11-08T05:54:01.903Z,9.00
2022-11-08T05:56:30.093Z,9.60
2022-11-08T05:58:58.500Z,9.35
2022-11-08T06:01:28.154Z,11.30
2022-11-08T06:03:56.444Z,10.25
2022-11-08T06:06:24.717Z,9.05
2022-11-08T06:08:54.478Z,11.50
2022-11-08T06:11:25.532Z,13.93
2022-11-08T06:13:55.702Z,13.63
2022-11-08T06:16:25.499Z,14.45
2022-11-08T06:18:55.127Z,16.42
2022-11-08T06:21:23.797Z,13.73
2022-11-08T06:23:54.541Z,12.45
2022-11-08T06:26:23.336Z,13.75
2022-11-08T06:28:51.846Z,13.07
2022-11-08T06:31:20.013Z,13.70
2022-11-08T06:33:48.401Z,13.05
2022-11-08T06:36:18.003Z,12.23
2022-11-08T06:38:46.225Z,11.48
2022-11-08T06:41:19.611Z,11.20
2022-11-08T06:43:49.178Z,10.32
2022-11-08T06:46:18.473Z,13.40
2022-11-08T06:48:46.780Z,15.20
2022-11-08T06:51:15.504Z,15.27
2022-11-08T06:53:45.375Z,16.38
2022-11-08T06:56:13.804Z,18.75
2022-11-08T06:58:42.111Z,18.50
2022-11-08T07:01:13.667Z,19.10
2022-11-08T07:03:41.978Z,18.80
2022-11-08T07:06:10.541Z,21.05
2022-11-08T07:08:38.919Z,20.50
2022-11-08T07:11:09.355Z,26.52
2022-11-08T07:13:37.746Z,26.15
2022-11-08T07:16:06.445Z,25.40
2022-11-08T07:18:35.230Z,21.95
2022-11-08T07:21:04.375Z,16.42
2022-11-08T07:23:32.849Z,13.70
2022-11-08T07:26:05.421Z,11.50
2022-11-08T07:28:35.111Z,11.05
2022-11-08T07:31:05.967Z,9.57
2022-11-08T07:33:34.344Z,8.85
2022-11-08T07:36:03.300Z,8.70
2022-11-08T07:38:31.740Z,9.00
2022-11-08T07:41:00.766Z,8.38
2022-11-08T07:43:30.397Z,8.25
2022-11-08T07:46:10.570Z,9.40
2022-11-08T07:48:38.705Z,9.27
2022-11-08T07:51:07.838Z,9.30
2022-11-08T07:53:58.019Z,7.65
2022-11-08T07:56:53.763Z,10.10
2022-11-08T07:59:23.015Z,7.78
2022-11-08T08:02:13.243Z,8.82
2022-11-08T08:05:02.399Z,6.45
2022-11-08T08:07:36.407Z,6.70
2022-11-08T08:10:31.033Z,6.57
2022-11-08T08:13:22.246Z,5.82
2022-11-08T08:16:11.554Z,6.45
2022-11-08T08:19:16.184Z,7.80
2022-11-08T08:21:45.512Z,6.60
2022-11-08T08:24:32.197Z,7.25
2022-11-08T08:27:30.629Z,7.30
2022-11-08T08:30:07.402Z,7.60
2022-11-08T08:33:26.725Z,6.07
2022-11-08T08:35:55.621Z,7.35
2022-11-08T08:38:49.942Z,8.18
2022-11-08T08:41:18.303Z,7.88
2022-11-08T08:43:51.440Z,7.60
2022-11-08T08:46:24.205Z,8.10
2022-11-08T08:49:10.878Z,7.70
2022-11-08T08:51:42.356Z,8.18
2022-11-08T08:54:31.830Z,7.55
2022-11-08T08:57:03.055Z,8.90
2022-11-08T09:02:44.455Z,7.80
2022-11-08T09:05:19.631Z,7.15
2022-11-08T09:07:49.247Z,7.70
2022-11-08T09:10:36.321Z,8.25
2022-11-08T09:13:04.845Z,6.65
2022-11-08T09:15:34.194Z,7.57
2022-11-08T09:18:02.566Z,7.13
2022-11-08T09:20:30.792Z,8.07
2022-11-08T09:23:03.766Z,7.07
2022-11-08T09:25:32.556Z,6.80
2022-11-08T09:28:00.688Z,6.45
2022-11-08T09:30:29.139Z,6.78
2022-11-08T09:33:02.136Z,7.15
2022-11-08T09:35:31.288Z,7.22
2022-11-08T09:38:00.065Z,6.72
2022-11-08T09:40:38.486Z,5.88
2022-11-08T09:43:19.942Z,6.20
2022-11-08T09:45:52.586Z,5.43
2022-11-08T09:48:26.134Z,6.10
2022-11-08T09:50:56.745Z,5.50
2022-11-08T09:53:34.887Z,5.68
2022-11-08T09:56:11.725Z,5.30
2022-11-08T09:58:47.277Z,4.75
2022-11-08T10:01:16.420Z,5.63
2022-11-08T10:03:48.948Z,5.60
2022-11-08T10:06:50.361Z,4.53
2022-11-08T10:09:34.104Z,5.05
2022-11-08T10:12:18.870Z,4.90
2022-11-08T10:15:03.969Z,5.20
2022-11-08T10:18:28.906Z,5.90
2022-11-08T10:21:06.583Z,5.18
2022-11-08T10:23:44.052Z,5.78
2022-11-08T10:26:18.043Z,5.10
2022-11-08T10:28:55.229Z,5.32
2022-11-08T10:31:23.550Z,5.57
2022-11-08T10:33:54.156Z,5.53
2022-11-08T10:36:27.887Z,5.03
2022-11-08T10:39:04.086Z,4.75
2022-11-08T10:41:40.914Z,4.55
2022-11-08T10:44:17.284Z,4.10
2022-11-08T10:46:49.115Z,4.30
2022-11-08T10:49:21.386Z,4.07
2022-11-08T10:51:51.401Z,3.80
2022-11-08T10:54:44.985Z,3.92
2022-11-08T10:57:15.333Z,3.78
2022-11-08T10:59:45.759Z,3.50
2022-11-08T11:02:21.365Z,3.20
2022-11-08T11:04:50.441Z,3.50
2022-11-08T11:07:34.233Z,3.25
2022-11-08T11:10:24.007Z,2.53
2022-11-08T11:13:02.509Z,2.75
2022-11-08T11:15:40.396Z,3.45
2022-11-08T11:18:23.162Z,4.25
2022-11-08T11:21:13.426Z,3.70
2022-11-08T11:23:44.754Z,4.18
2022-11-08T11:26:28.796Z,3.65
2022-11-08T11:29:17.089Z,3.00
2022-11-08T11:31:48.455Z,2.85
2022-11-08T11:34:43.854Z,3.30
2022-11-08T11:37:37.672Z,3.30
2022-11-08T11:40:17.521Z,4.05
2022-11-08T11:42:55.731Z,3.10
2022-11-08T11:45:30.897Z,3.15
2022-11-08T11:48:04.704Z,3.40
2022-11-08T11:50:36.015Z,3.03
2022-11-08T11:53:07.416Z,2.85
2022-11-08T11:55:50.846Z,3.58
2022-11-08T11:58:35.358Z,2.85
2022-11-08T12:01:15.721Z,2.53
2022-11-08T12:04:01.137Z,2.47
2022-11-08T12:06:39.676Z,2.83
2022-11-08T12:09:26.028Z,3.95
2022-11-08T12:12:12.158Z,2.80
2022-11-08T12:14:55.211Z,2.80
2022-11-08T12:17:48.164Z,3.53
2022-11-08T12:20:35.738Z,2.60
2022-11-08T12:23:29.635Z,3.35
2022-11-08T12:26:03.119Z,3.22
2022-11-08T12:28:46.046Z,3.25
2022-11-08T12:31:26.501Z,3.92
2022-11-08T12:34:08.915Z,3.20
2022-11-08T12:36:48.672Z,4.07
2022-11-08T12:39:27.733Z,3.60
2022-11-08T12:42:07.890Z,4.40
2022-11-08T12:45:02.434Z,2.80
2022-11-08T12:47:36.715Z,3.40
2022-11-08T12:50:21.700Z,3.78
2022-11-08T12:53:07.918Z,4.65
2022-11-08T12:55:38.488Z,4.13
2022-11-08T12:58:19.745Z,4.68
2022-11-08T13:00:52.396Z,3.80
2022-11-08T13:03:40.201Z,3.53
2022-11-08T13:06:13.588Z,3.88
2022-11-08T13:08:52.141Z,3.63
2022-11-08T13:11:26.026Z,3.83
2022-11-08T13:13:57.250Z,4.40
2022-11-08T13:16:27.306Z,3.92
2022-11-08T13:18:57.805Z,4.47
2022-11-08T13:21:38.038Z,4.55
2022-11-08T13:24:45.329Z,4.20
2022-11-08T13:27:34.130Z,4.65
2022-11-08T13:30:26.530Z,4.43
2022-11-08T13:33:00.603Z,3.53
2022-11-08T13:35:36.496Z,4.57
2022-11-08T13:38:18.593Z,3.72
2022-11-08T13:41:11.865Z,4.63
2022-11-08T13:43:40.455Z,4.80
2022-11-08T13:46:45.606Z,4.40
2022-11-08T13:49:19.291Z,3.95
2022-11-08T13:51:47.964Z,4.30
2022-11-08T13:54:50.621Z,4.50
2022-11-08T13:57:21.989Z,4.57
2022-11-08T13:59:59.593Z,3.78
2022-11-08T14:02:45.895Z,4.32
2022-11-08T14:05:29.719Z,4.15
2022-11-08T14:08:15.034Z,4.03
2022-11-08T14:11:18.910Z,4.72
2022-11-08T14:14:06.845Z,4.07
2022-11-08T14:16:44.970Z,4.20
2022-11-08T14:19:22.369Z,4.57
2022-11-08T14:21:52.911Z,4.05
2022-11-08T14:24:25.581Z,4.03
2022-11-08T14:26:54.134Z,3.72
2022-11-08T14:29:25.594Z,3.78
2022-11-08T14:32:05.391Z,4.15
2022-11-08T14:34:36.434Z,4.97
2022-11-08T14:37:06.078Z,5.32
2022-11-08T14:39:35.835Z,4.28
2022-11-08T14:42:06.976Z,4.72
2022-11-08T14:44:36.642Z,3.70
2022-11-08T14:47:05.534Z,4.57
2022-11-08T14:49:35.945Z,4.93
2022-11-08T14:52:13.333Z,5.80
2022-11-08T14:54:44.431Z,5.90
2022-11-08T14:57:33.246Z,6.00
2022-11-08T15:00:06.890Z,5.43
2022-11-08T15:02:35.299Z,4.72
2022-11-08T15:05:05.677Z,5.63
2022-11-08T15:07:34.840Z,5.75
2022-11-08T15:10:11.006Z,5.07
2022-11-08T15:12:43.108Z,5.95
2022-11-08T15:15:25.315Z,6.55
2022-11-08T15:18:15.663Z,5.85
2022-11-08T15:20:55.739Z,5.47
2022-11-08T15:23:36.994Z,6.35
2022-11-08T15:26:05.378Z,5.55
2022-11-08T15:28:35.412Z,6.18
2022-11-08T15:31:06.231Z,5.75
2022-11-08T15:33:37.777Z,6.35
2022-11-08T15:36:13.468Z,7.65
2022-11-08T15:38:43.669Z,6.35
2022-11-08T15:41:33.018Z,6.45
2022-11-08T15:44:15.025Z,6.68
2022-11-08T15:46:44.766Z,7.47
2022-11-08T15:49:19.221Z,6.95
2022-11-08T15:51:48.143Z,5.95
2022-11-08T15:54:16.728Z,7.38
2022-11-08T15:56:46.335Z,7.00
2022-11-08T15:59:21.100Z,6.57
2022-11-08T16:01:54.923Z,7.65
2022-11-08T16:04:23.573Z,7.70
2022-11-08T16:06:51.988Z,7.07
2022-11-08T16:09:20.710Z,6.50
2022-11-08T16:11:49.596Z,7.35
2022-11-08T16:14:21.203Z,7.32
2022-11-08T16:16:50.060Z,8.00
2022-11-08T16:19:21.866Z,7.28
2022-11-08T16:21:50.914Z,8.30
2022-11-08T16:24:19.421Z,8.00
2022-11-08T16:26:49.802Z,7.28
2022-11-08T16:29:21.386Z,7.93
2022-11-08T16:31:50.057Z,7.90
2022-11-08T16:34:19.980Z,7.88
2022-11-08T16:36:50.212Z,7.93
2022-11-08T16:39:20.093Z,10.63
2022-11-08T16:41:48.479Z,8.45
2022-11-08T16:44:17.049Z,9.43
2022-11-08T16:46:45.904Z,9.07
2022-11-08T16:49:23.090Z,10.60
2022-11-08T16:51:51.624Z,11.35
2022-11-08T16:54:21.308Z,7.97
2022-11-08T16:56:49.597Z,8.27
2022-11-08T16:59:18.000Z,9.85
2022-11-08T17:01:46.860Z,9.68
2022-11-08T17:04:15.048Z,9.80
2022-11-08T17:06:44.712Z,9.27
2022-11-08T17:09:13.143Z,8.50
2022-11-08T17:11:42.223Z,9.98
2022-11-08T17:14:12.121Z,11.05
2022-11-08T17:16:40.421Z,10.60
2022-11-08T17:19:08.615Z,9.27
2022-11-08T17:21:45.754Z,8.52
2022-11-08T17:24:21.317Z,10.40
2022-11-08T17:26:50.291Z,8.95
2022-11-08T17:29:18.588Z,8.90
2022-11-08T17:31:47.186Z,9.02
2022-11-08T17:34:15.685Z,8.55
2022-11-08T17:36:44.249Z,7.65
2022-11-08T17:39:14.164Z,9.13
2022-11-08T17:41:43.843Z,8.38
2022-11-08T17:44:12.209Z,9.27
2022-11-08T17:46:40.703Z,9.18
2022-11-08T17:49:10.013Z,9.02
2022-11-08T17:51:38.279Z,9.43
2022-11-08T17:54:06.607Z,9.10
2022-11-08T17:56:35.030Z,9.45
2022-11-08T17:59:05.974Z,9.30
2022-11-08T18:01:34.398Z,8.27
2022-11-08T18:04:03.665Z,9.18
2022-11-08T18:06:32.146Z,10.07
2022-11-08T18:09:00.573Z,9.73
2022-11-08T18:11:29.081Z,8.40
2022-11-08T18:13:57.459Z,8.48
2022-11-08T18:16:27.169Z,9.00
2022-11-08T18:18:55.960Z,9.88
2022-11-08T18:21:24.446Z,8.30
2022-11-08T18:23:53.135Z,9.10
2022-11-08T18:26:21.705Z,9.70
2022-11-08T18:28:49.997Z,10.65
2022-11-08T18:31:20.717Z,10.30
2022-11-08T18:33:50.729Z,10.43
2022-11-08T18:36:21.483Z,11.98
2022-11-08T18:38:51.529Z,11.40
2022-11-08T18:41:22.239Z,11.65
2022-11-08T18:43:50.798Z,11.35
2022-11-08T18:46:21.081Z,10.45
2022-11-08T18:48:51.132Z,10.05
2022-11-08T18:51:21.590Z,9.90
2022-11-08T18:53:52.477Z,9.73
2022-11-08T18:56:21.586Z,11.48
2022-11-08T18:58:51.030Z,10.82
2022-11-08T19:01:19.853Z,12.55
2022-11-08T19:03:48.470Z,11.85
2022-11-08T19:06:19.421Z,13.95
2022-11-08T19:08:47.846Z,12.57
2022-11-08T19:11:20.555Z,12.23
2022-11-08T19:13:49.594Z,12.70
2022-11-08T19:16:20.400Z,13.65
2022-11-08T19:18:49.747Z,12.35
2022-11-08T19:21:21.646Z,12.02
2022-11-08T19:23:51.000Z,13.00
2022-11-08T19:26:22.138Z,12.32
2022-11-08T19:28:54.478Z,12.07
2022-11-08T19:31:24.635Z,13.45
2022-11-08T19:33:54.427Z,13.10
2022-11-08T19:36:25.528Z,13.60
2022-11-08T19:38:55.058Z,13.00
2022-11-08T19:41:25.715Z,13.00
2022-11-08T19:43:55.094Z,14.82
2022-11-08T19:46:24.838Z,14.27
2022-11-08T19:48:54.095Z,15.18
2022-11-08T19:51:27.434Z,16.25
2022-11-08T19:53:59.847Z,16.73
2022-11-08T19:56:57.658Z,17.00
2022-11-08T19:59:26.933Z,17.52
2022-11-08T20:01:58.586Z,17.75
2022-11-08T20:04:30.110Z,16.38
2022-11-08T20:07:03.115Z,16.90
2022-11-08T20:09:35.921Z,16.50
2022-11-08T20:12:05.804Z,18.48
2022-11-08T20:14:34.181Z,18.27
2022-11-08T20:17:02.525Z,19.60
2022-11-08T20:19:31.083Z,17.88
2022-11-08T20:22:01.384Z,20.23
2022-11-08T20:24:29.635Z,17.50
2022-11-08T20:26:58.348Z,18.90
2022-11-08T20:29:26.923Z,18.65
2022-11-08T20:31:56.548Z,19.45
2022-11-08T20:34:25.777Z,20.55
2022-11-08T20:36:54.212Z,21.23
2022-11-08T20:39:24.759Z,21.77
2022-11-08T20:41:52.996Z,21.90
2022-11-08T20:44:22.775Z,22.25
2022-11-08T20:46:51.200Z,19.75
2022-11-08T20:49:19.475Z,21.50
2022-11-08T20:51:48.029Z,19.70
2022-11-08T20:54:16.731Z,20.33
2022-11-08T20:56:46.947Z,21.45
2022-11-08T20:59:15.727Z,19.75
2022-11-08T21:01:44.049Z,19.85
2022-11-08T21:04:12.396Z,18.88
2022-11-08T21:06:41.107Z,19.48
2022-11-08T21:09:34.318Z,19.90
2022-11-08T21:11:59.948Z,21.55
2022-11-08T21:14:28.224Z,16.90
2022-11-08T21:17:20.953Z,22.10
2022-11-08T21:19:45.370Z,18.45
2022-11-08T21:22:16.596Z,19.88
2022-11-08T21:24:47.168Z,20.60
2022-11-08T21:27:17.982Z,20.42
2022-11-08T21:29:46.718Z,22.20
2022-11-08T21:32:15.253Z,21.63
2022-11-08T21:34:46.296Z,20.83
2022-11-08T21:37:15.800Z,20.17
2022-11-08T21:39:44.309Z,19.38
2022-11-08T21:42:14.041Z,21.60
2022-11-08T21:44:44.294Z,20.48
2022-11-08T21:47:12.800Z,21.73
2022-11-08T21:49:41.917Z,21.73
2022-11-08T21:52:10.922Z,21.20
2022-11-08T21:54:40.561Z,22.55
2022-11-08T21:57:09.046Z,22.13
2022-11-08T21:59:37.314Z,20.70
2022-11-08T22:02:07.528Z,22.85
2022-11-08T22:04:35.966Z,19.95
2022-11-08T22:07:04.639Z,19.95
2022-11-08T22:09:32.902Z,21.30
2022-11-08T22:12:01.200Z,22.20
2022-11-08T22:14:30.054Z,19.83
2022-11-08T22:17:01.411Z,22.77
2022-11-08T22:19:32.463Z,19.63
2022-11-08T22:22:00.863Z,21.55
2022-11-08T22:24:29.685Z,21.55
2022-11-08T22:26:58.271Z,22.10
2022-11-08T22:29:30.797Z,20.00
2022-11-08T22:31:59.572Z,21.85
2022-11-08T22:34:29.089Z,22.80
2022-11-08T22:36:59.001Z,24.00
2022-11-08T22:39:27.119Z,22.42
2022-11-08T22:41:56.129Z,23.45
2022-11-08T22:44:24.406Z,25.40
2022-11-08T22:46:52.673Z,22.15
2022-11-08T22:49:21.796Z,23.92
2022-11-08T22:51:50.334Z,23.88
2022-11-08T22:54:20.059Z,24.20
2022-11-08T22:56:48.355Z,23.42
2022-11-08T22:59:16.726Z,23.20
2022-11-08T23:01:44.931Z,22.27
2022-11-08T23:04:12.996Z,23.48
2022-11-08T23:06:41.570Z,23.15
2022-11-08T23:09:10.378Z,21.73
2022-11-08T23:11:57.367Z,22.65
2022-11-08T23:14:43.360Z,21.75
2022-11-08T23:17:11.747Z,23.10
2022-11-08T23:19:57.645Z,21.25
2022-11-08T23:22:43.223Z,22.83
2022-11-08T23:25:12.273Z,21.73
2022-11-08T23:27:59.585Z,22.10
2022-11-08T23:30:45.396Z,19.90
2022-11-08T23:33:13.610Z,23.20
2022-11-08T23:36:01.911Z,24.02
2022-11-08T23:38:30.312Z,21.67
2022-11-08T23:41:17.651Z,21.38
2022-11-08T23:44:04.725Z,19.83
2022-11-08T23:46:33.092Z,20.42
2022-11-08T23:49:02.037Z,21.15
2022-11-08T23:51:30.384Z,22.02
2022-11-08T23:53:58.635Z,20.20
2022-11-08T23:56:28.497Z,19.40
2022-11-08T23:59:00.620Z,20.38
